sensor_id;sensor_type;location;lat;lon;timestamp;P1;durP1;ratioP1;P2;durP2;ratioP2
41799;SDS011;27468;47.460;19.034;2023-04-25T00:01:05;1.08;;;1.00;;
41799;SDS011;27468;47.460;19.034;2023-04-25T00:03:31;1.42;;;0.70;;
41799;SDS011;27468;47.460;19.034;2023-04-25T00:05:57;1.10;;;0.70;;
41799;SDS011;27468;47.460;19.034;2023-04-25T00:08:26;0.93;;;0.70;;
41799;SDS011;27468;47.460;19.034;2023-04-25T00:10:52;1.13;;;0.70;;
41799;SDS011;27468;47.460;19.034;2023-04-25T00:13:17;0.50;;;0.50;;
41799;SDS011;27468;47.460;19.034;2023-04-25T00:15:44;1.60;;;0.50;;
41799;SDS011;27468;47.460;19.034;2023-04-25T00:18:11;1.17;;;0.68;;
41799;SDS011;27468;47.460;19.034;2023-04-25T00:20:36;1.13;;;0.77;;
41799;SDS011;27468;47.460;19.034;2023-04-25T00:23:02;0.98;;;0.80;;
41799;SDS011;27468;47.460;19.034;2023-04-25T00:25:27;1.17;;;0.80;;
41799;SDS011;27468;47.460;19.034;2023-04-25T00:27:54;1.60;;;0.80;;
41799;SDS011;27468;47.460;19.034;2023-04-25T00:30:20;2.38;;;1.13;;
41799;SDS011;27468;47.460;19.034;2023-04-25T00:32:45;1.60;;;1.00;;
41799;SDS011;27468;47.460;19.034;2023-04-25T00:35:11;0.93;;;0.90;;
41799;SDS011;27468;47.460;19.034;2023-04-25T00:37:36;1.20;;;0.70;;
41799;SDS011;27468;47.460;19.034;2023-04-25T00:40:04;1.67;;;1.10;;
41799;SDS011;27468;47.460;19.034;2023-04-25T00:42:31;1.33;;;1.00;;
41799;SDS011;27468;47.460;19.034;2023-04-25T00:44:57;1.73;;;0.90;;
41799;SDS011;27468;47.460;19.034;2023-04-25T00:47:23;0.82;;;0.80;;
41799;SDS011;27468;47.460;19.034;2023-04-25T00:49:50;2.58;;;1.30;;
41799;SDS011;27468;47.460;19.034;2023-04-25T00:52:15;0.95;;;0.73;;
41799;SDS011;27468;47.460;19.034;2023-04-25T00:54:41;1.63;;;1.00;;
41799;SDS011;27468;47.460;19.034;2023-04-25T00:57:06;3.40;;;1.33;;
41799;SDS011;27468;47.460;19.034;2023-04-25T00:59:31;1.58;;;1.17;;
41799;SDS011;27468;47.460;19.034;2023-04-25T01:01:58;1.48;;;1.02;;
41799;SDS011;27468;47.460;19.034;2023-04-25T01:04:24;1.33;;;1.23;;
41799;SDS011;27468;47.460;19.034;2023-04-25T01:06:52;2.47;;;1.20;;
41799;SDS011;27468;47.460;19.034;2023-04-25T01:09:17;1.90;;;1.13;;
41799;SDS011;27468;47.460;19.034;2023-04-25T01:11:44;1.27;;;1.00;;
41799;SDS011;27468;47.460;19.034;2023-04-25T01:14:10;1.23;;;0.80;;
41799;SDS011;27468;47.460;19.034;2023-04-25T01:16:35;1.98;;;1.40;;
41799;SDS011;27468;47.460;19.034;2023-04-25T01:19:03;1.52;;;1.10;;
41799;SDS011;27468;47.460;19.034;2023-04-25T01:21:34;1.40;;;0.95;;
41799;SDS011;27468;47.460;19.034;2023-04-25T01:23:59;2.00;;;1.02;;
41799;SDS011;27468;47.460;19.034;2023-04-25T01:26:25;3.28;;;1.10;;
41799;SDS011;27468;47.460;19.034;2023-04-25T01:28:51;1.75;;;1.05;;
41799;SDS011;27468;47.460;19.034;2023-04-25T01:31:17;2.10;;;1.13;;
41799;SDS011;27468;47.460;19.034;2023-04-25T01:33:43;1.52;;;1.25;;
41799;SDS011;27468;47.460;19.034;2023-04-25T01:36:09;2.10;;;1.00;;
41799;SDS011;27468;47.460;19.034;2023-04-25T01:38:35;1.55;;;1.10;;
41799;SDS011;27468;47.460;19.034;2023-04-25T01:41:01;2.45;;;1.50;;
41799;SDS011;27468;47.460;19.034;2023-04-25T01:43:27;1.63;;;1.13;;
41799;SDS011;27468;47.460;19.034;2023-04-25T01:45:52;0.90;;;0.70;;
41799;SDS011;27468;47.460;19.034;2023-04-25T01:48:18;2.05;;;1.40;;
41799;SDS011;27468;47.460;19.034;2023-04-25T01:50:44;1.02;;;0.88;;
41799;SDS011;27468;47.460;19.034;2023-04-25T01:53:10;1.80;;;1.38;;
41799;SDS011;27468;47.460;19.034;2023-04-25T01:55:37;1.73;;;1.10;;
41799;SDS011;27468;47.460;19.034;2023-04-25T01:58:03;1.25;;;0.95;;
41799;SDS011;27468;47.460;19.034;2023-04-25T02:00:34;1.63;;;1.10;;
41799;SDS011;27468;47.460;19.034;2023-04-25T02:02:59;2.88;;;1.52;;
41799;SDS011;27468;47.460;19.034;2023-04-25T02:05:25;1.70;;;1.25;;
41799;SDS011;27468;47.460;19.034;2023-04-25T02:07:50;1.55;;;1.13;;
41799;SDS011;27468;47.460;19.034;2023-04-25T02:10:15;1.83;;;1.35;;
41799;SDS011;27468;47.460;19.034;2023-04-25T02:12:41;1.67;;;1.08;;
41799;SDS011;27468;47.460;19.034;2023-04-25T02:15:06;2.47;;;1.67;;
41799;SDS011;27468;47.460;19.034;2023-04-25T02:17:32;1.63;;;1.20;;
41799;SDS011;27468;47.460;19.034;2023-04-25T02:19:58;2.42;;;1.23;;
41799;SDS011;27468;47.460;19.034;2023-04-25T02:22:23;1.50;;;0.90;;
41799;SDS011;27468;47.460;19.034;2023-04-25T02:24:49;1.35;;;1.15;;
41799;SDS011;27468;47.460;19.034;2023-04-25T02:27:14;2.40;;;1.30;;
41799;SDS011;27468;47.460;19.034;2023-04-25T02:29:40;1.48;;;1.10;;
41799;SDS011;27468;47.460;19.034;2023-04-25T02:32:05;2.70;;;1.23;;
41799;SDS011;27468;47.460;19.034;2023-04-25T02:34:31;1.58;;;1.25;;
41799;SDS011;27468;47.460;19.034;2023-04-25T02:36:57;1.92;;;1.52;;
41799;SDS011;27468;47.460;19.034;2023-04-25T02:39:22;2.20;;;1.33;;
41799;SDS011;27468;47.460;19.034;2023-04-25T02:41:50;1.15;;;1.05;;
41799;SDS011;27468;47.460;19.034;2023-04-25T02:44:15;1.13;;;0.98;;
41799;SDS011;27468;47.460;19.034;2023-04-25T02:46:40;2.28;;;1.05;;
41799;SDS011;27468;47.460;19.034;2023-04-25T02:49:06;2.50;;;1.42;;
41799;SDS011;27468;47.460;19.034;2023-04-25T02:51:32;1.85;;;1.20;;
41799;SDS011;27468;47.460;19.034;2023-04-25T02:53:57;1.38;;;0.82;;
41799;SDS011;27468;47.460;19.034;2023-04-25T02:56:23;1.52;;;1.13;;
41799;SDS011;27468;47.460;19.034;2023-04-25T02:58:51;1.40;;;1.02;;
41799;SDS011;27468;47.460;19.034;2023-04-25T03:01:16;1.80;;;1.30;;
41799;SDS011;27468;47.460;19.034;2023-04-25T03:03:41;1.65;;;1.15;;
41799;SDS011;27468;47.460;19.034;2023-04-25T03:06:07;2.17;;;1.40;;
41799;SDS011;27468;47.460;19.034;2023-04-25T03:08:32;2.58;;;1.42;;
41799;SDS011;27468;47.460;19.034;2023-04-25T03:10:59;1.17;;;1.00;;
41799;SDS011;27468;47.460;19.034;2023-04-25T03:13:24;1.73;;;1.20;;
41799;SDS011;27468;47.460;19.034;2023-04-25T03:15:50;1.52;;;1.23;;
41799;SDS011;27468;47.460;19.034;2023-04-25T03:18:16;1.67;;;1.10;;
41799;SDS011;27468;47.460;19.034;2023-04-25T03:20:41;2.70;;;1.60;;
41799;SDS011;27468;47.460;19.034;2023-04-25T03:23:07;1.63;;;1.20;;
41799;SDS011;27468;47.460;19.034;2023-04-25T03:25:33;3.53;;;1.67;;
41799;SDS011;27468;47.460;19.034;2023-04-25T03:27:59;1.67;;;1.08;;
41799;SDS011;27468;47.460;19.034;2023-04-25T03:30:24;2.17;;;1.35;;
41799;SDS011;27468;47.460;19.034;2023-04-25T03:32:50;7.63;;;1.77;;
41799;SDS011;27468;47.460;19.034;2023-04-25T03:35:15;1.65;;;1.05;;
41799;SDS011;27468;47.460;19.034;2023-04-25T03:37:41;3.63;;;1.10;;
41799;SDS011;27468;47.460;19.034;2023-04-25T03:40:10;2.60;;;1.40;;
41799;SDS011;27468;47.460;19.034;2023-04-25T03:42:36;1.95;;;1.30;;
41799;SDS011;27468;47.460;19.034;2023-04-25T03:45:01;3.00;;;1.60;;
41799;SDS011;27468;47.460;19.034;2023-04-25T03:47:27;2.08;;;1.30;;
41799;SDS011;27468;47.460;19.034;2023-04-25T03:49:52;1.75;;;1.38;;
41799;SDS011;27468;47.460;19.034;2023-04-25T03:52:18;1.92;;;1.20;;
41799;SDS011;27468;47.460;19.034;2023-04-25T03:54:43;1.92;;;1.08;;
41799;SDS011;27468;47.460;19.034;2023-04-25T03:57:08;1.48;;;0.98;;
41799;SDS011;27468;47.460;19.034;2023-04-25T03:59:35;1.77;;;1.13;;
41799;SDS011;27468;47.460;19.034;2023-04-25T04:02:00;1.98;;;1.10;;
41799;SDS011;27468;47.460;19.034;2023-04-25T04:04:26;2.90;;;1.27;;
41799;SDS011;27468;47.460;19.034;2023-04-25T04:06:51;1.50;;;1.10;;
41799;SDS011;27468;47.460;19.034;2023-04-25T04:09:17;1.15;;;1.02;;
41799;SDS011;27468;47.460;19.034;2023-04-25T04:11:44;1.67;;;1.13;;
41799;SDS011;27468;47.460;19.034;2023-04-25T04:14:09;0.82;;;0.70;;
41799;SDS011;27468;47.460;19.034;2023-04-25T04:16:35;1.42;;;1.00;;
41799;SDS011;27468;47.460;19.034;2023-04-25T04:19:01;1.30;;;0.93;;
41799;SDS011;27468;47.460;19.034;2023-04-25T04:21:26;1.58;;;0.90;;
41799;SDS011;27468;47.460;19.034;2023-04-25T04:23:52;1.45;;;1.25;;
41799;SDS011;27468;47.460;19.034;2023-04-25T04:26:20;1.30;;;0.95;;
41799;SDS011;27468;47.460;19.034;2023-04-25T04:28:48;2.50;;;1.40;;
41799;SDS011;27468;47.460;19.034;2023-04-25T04:31:16;1.40;;;1.25;;
41799;SDS011;27468;47.460;19.034;2023-04-25T04:33:44;1.50;;;1.10;;
41799;SDS011;27468;47.460;19.034;2023-04-25T04:36:10;2.35;;;1.50;;
41799;SDS011;27468;47.460;19.034;2023-04-25T04:38:36;1.88;;;1.27;;
41799;SDS011;27468;47.460;19.034;2023-04-25T04:41:02;2.30;;;1.38;;
41799;SDS011;27468;47.460;19.034;2023-04-25T04:43:28;1.63;;;1.40;;
41799;SDS011;27468;47.460;19.034;2023-04-25T04:45:54;2.00;;;1.40;;
41799;SDS011;27468;47.460;19.034;2023-04-25T04:48:23;2.05;;;1.35;;
41799;SDS011;27468;47.460;19.034;2023-04-25T04:50:49;2.55;;;1.20;;
41799;SDS011;27468;47.460;19.034;2023-04-25T04:53:15;1.38;;;0.93;;
41799;SDS011;27468;47.460;19.034;2023-04-25T04:55:40;2.88;;;1.13;;
41799;SDS011;27468;47.460;19.034;2023-04-25T04:58:08;2.00;;;1.35;;
41799;SDS011;27468;47.460;19.034;2023-04-25T05:00:34;1.60;;;1.20;;
41799;SDS011;27468;47.460;19.034;2023-04-25T05:02:59;2.08;;;1.42;;
41799;SDS011;27468;47.460;19.034;2023-04-25T05:05:25;1.58;;;1.05;;
41799;SDS011;27468;47.460;19.034;2023-04-25T05:07:51;2.47;;;1.17;;
41799;SDS011;27468;47.460;19.034;2023-04-25T05:10:17;1.90;;;1.10;;
41799;SDS011;27468;47.460;19.034;2023-04-25T05:12:43;1.00;;;0.90;;
41799;SDS011;27468;47.460;19.034;2023-04-25T05:15:09;2.10;;;1.40;;
41799;SDS011;27468;47.460;19.034;2023-04-25T05:17:35;1.67;;;1.17;;
41799;SDS011;27468;47.460;19.034;2023-04-25T05:20:00;2.28;;;1.10;;
41799;SDS011;27468;47.460;19.034;2023-04-25T05:22:26;1.98;;;1.33;;
41799;SDS011;27468;47.460;19.034;2023-04-25T05:24:52;1.95;;;1.30;;
41799;SDS011;27468;47.460;19.034;2023-04-25T05:27:17;1.73;;;1.20;;
41799;SDS011;27468;47.460;19.034;2023-04-25T05:29:43;1.60;;;1.08;;
41799;SDS011;27468;47.460;19.034;2023-04-25T05:32:09;1.67;;;1.13;;
41799;SDS011;27468;47.460;19.034;2023-04-25T05:34:35;1.27;;;1.00;;
41799;SDS011;27468;47.460;19.034;2023-04-25T05:37:01;2.13;;;1.23;;
41799;SDS011;27468;47.460;19.034;2023-04-25T05:39:26;1.50;;;1.40;;
41799;SDS011;27468;47.460;19.034;2023-04-25T05:41:52;1.77;;;1.30;;
41799;SDS011;27468;47.460;19.034;2023-04-25T05:44:17;1.40;;;1.08;;
41799;SDS011;27468;47.460;19.034;2023-04-25T05:46:43;2.13;;;1.05;;
41799;SDS011;27468;47.460;19.034;2023-04-25T05:49:08;1.88;;;1.00;;
41799;SDS011;27468;47.460;19.034;2023-04-25T05:51:34;1.17;;;0.88;;
41799;SDS011;27468;47.460;19.034;2023-04-25T05:53:59;3.33;;;1.25;;
41799;SDS011;27468;47.460;19.034;2023-04-25T05:56:25;1.55;;;1.30;;
41799;SDS011;27468;47.460;19.034;2023-04-25T05:58:50;2.00;;;1.27;;
41799;SDS011;27468;47.460;19.034;2023-04-25T06:01:16;2.50;;;1.83;;
41799;SDS011;27468;47.460;19.034;2023-04-25T06:03:41;1.83;;;1.38;;
41799;SDS011;27468;47.460;19.034;2023-04-25T06:06:08;2.15;;;1.35;;
41799;SDS011;27468;47.460;19.034;2023-04-25T06:08:34;1.83;;;1.50;;
41799;SDS011;27468;47.460;19.034;2023-04-25T06:10:59;2.00;;;1.35;;
41799;SDS011;27468;47.460;19.034;2023-04-25T06:13:25;2.20;;;1.50;;
41799;SDS011;27468;47.460;19.034;2023-04-25T06:15:50;3.00;;;1.65;;
41799;SDS011;27468;47.460;19.034;2023-04-25T06:18:16;2.92;;;1.60;;
41799;SDS011;27468;47.460;19.034;2023-04-25T06:20:41;2.13;;;1.67;;
41799;SDS011;27468;47.460;19.034;2023-04-25T06:23:07;3.28;;;2.03;;
41799;SDS011;27468;47.460;19.034;2023-04-25T06:25:32;2.67;;;1.90;;
41799;SDS011;27468;47.460;19.034;2023-04-25T06:27:57;2.40;;;1.67;;
41799;SDS011;27468;47.460;19.034;2023-04-25T06:30:23;2.30;;;1.55;;
41799;SDS011;27468;47.460;19.034;2023-04-25T06:32:50;3.00;;;2.00;;
41799;SDS011;27468;47.460;19.034;2023-04-25T06:35:19;2.47;;;2.03;;
41799;SDS011;27468;47.460;19.034;2023-04-25T06:37:44;3.55;;;2.17;;
41799;SDS011;27468;47.460;19.034;2023-04-25T06:40:10;3.33;;;2.15;;
41799;SDS011;27468;47.460;19.034;2023-04-25T06:42:36;2.72;;;2.15;;
41799;SDS011;27468;47.460;19.034;2023-04-25T06:45:01;3.85;;;2.17;;
41799;SDS011;27468;47.460;19.034;2023-04-25T06:47:27;3.15;;;2.58;;
41799;SDS011;27468;47.460;19.034;2023-04-25T06:49:53;4.10;;;2.03;;
41799;SDS011;27468;47.460;19.034;2023-04-25T06:52:18;2.92;;;2.45;;
41799;SDS011;27468;47.460;19.034;2023-04-25T06:54:44;2.75;;;1.98;;
41799;SDS011;27468;47.460;19.034;2023-04-25T06:57:10;3.20;;;1.98;;
41799;SDS011;27468;47.460;19.034;2023-04-25T06:59:35;3.15;;;2.08;;
41799;SDS011;27468;47.460;19.034;2023-04-25T07:02:00;4.63;;;2.08;;
41799;SDS011;27468;47.460;19.034;2023-04-25T07:04:26;4.15;;;2.55;;
41799;SDS011;27468;47.460;19.034;2023-04-25T07:06:51;3.95;;;2.55;;
41799;SDS011;27468;47.460;19.034;2023-04-25T07:09:16;2.40;;;1.80;;
41799;SDS011;27468;47.460;19.034;2023-04-25T07:11:42;2.88;;;2.10;;
41799;SDS011;27468;47.460;19.034;2023-04-25T07:14:07;3.97;;;2.28;;
41799;SDS011;27468;47.460;19.034;2023-04-25T07:16:33;4.03;;;2.60;;
41799;SDS011;27468;47.460;19.034;2023-04-25T07:18:58;3.45;;;2.40;;
41799;SDS011;27468;47.460;19.034;2023-04-25T07:21:24;2.70;;;2.03;;
41799;SDS011;27468;47.460;19.034;2023-04-25T07:23:50;2.80;;;1.95;;
41799;SDS011;27468;47.460;19.034;2023-04-25T07:26:16;3.22;;;2.05;;
41799;SDS011;27468;47.460;19.034;2023-04-25T07:28:41;2.83;;;1.85;;
41799;SDS011;27468;47.460;19.034;2023-04-25T07:31:08;2.00;;;1.58;;
41799;SDS011;27468;47.460;19.034;2023-04-25T07:33:33;1.60;;;1.30;;
41799;SDS011;27468;47.460;19.034;2023-04-25T07:35:59;1.98;;;1.67;;
41799;SDS011;27468;47.460;19.034;2023-04-25T07:38:25;2.78;;;1.90;;
41799;SDS011;27468;47.460;19.034;2023-04-25T07:40:50;3.03;;;1.70;;
41799;SDS011;27468;47.460;19.034;2023-04-25T07:43:16;2.50;;;1.70;;
41799;SDS011;27468;47.460;19.034;2023-04-25T07:45:45;2.38;;;1.70;;
41799;SDS011;27468;47.460;19.034;2023-04-25T07:48:16;2.00;;;1.65;;
41799;SDS011;27468;47.460;19.034;2023-04-25T07:50:43;2.70;;;1.67;;
41799;SDS011;27468;47.460;19.034;2023-04-25T07:53:08;2.30;;;1.63;;
41799;SDS011;27468;47.460;19.034;2023-04-25T07:55:34;3.15;;;2.05;;
41799;SDS011;27468;47.460;19.034;2023-04-25T07:58:01;2.15;;;1.77;;
41799;SDS011;27468;47.460;19.034;2023-04-25T08:00:28;2.63;;;1.80;;
41799;SDS011;27468;47.460;19.034;2023-04-25T08:02:54;3.20;;;1.67;;
41799;SDS011;27468;47.460;19.034;2023-04-25T08:05:19;1.95;;;1.40;;
41799;SDS011;27468;47.460;19.034;2023-04-25T08:07:44;1.63;;;1.40;;
41799;SDS011;27468;47.460;19.034;2023-04-25T08:10:10;1.80;;;1.27;;
41799;SDS011;27468;47.460;19.034;2023-04-25T08:12:35;2.05;;;1.20;;
41799;SDS011;27468;47.460;19.034;2023-04-25T08:15:01;2.15;;;1.55;;
41799;SDS011;27468;47.460;19.034;2023-04-25T08:17:26;2.30;;;1.30;;
41799;SDS011;27468;47.460;19.034;2023-04-25T08:19:52;1.50;;;1.20;;
41799;SDS011;27468;47.460;19.034;2023-04-25T08:22:17;2.22;;;1.63;;
41799;SDS011;27468;47.460;19.034;2023-04-25T08:24:43;2.05;;;1.48;;
41799;SDS011;27468;47.460;19.034;2023-04-25T08:27:09;1.40;;;1.27;;
41799;SDS011;27468;47.460;19.034;2023-04-25T08:29:34;1.95;;;1.50;;
41799;SDS011;27468;47.460;19.034;2023-04-25T08:32:00;1.77;;;1.20;;
41799;SDS011;27468;47.460;19.034;2023-04-25T08:34:26;2.65;;;1.48;;
41799;SDS011;27468;47.460;19.034;2023-04-25T08:36:51;1.92;;;1.35;;
41799;SDS011;27468;47.460;19.034;2023-04-25T08:39:17;1.90;;;1.40;;
41799;SDS011;27468;47.460;19.034;2023-04-25T08:41:43;1.55;;;1.10;;
41799;SDS011;27468;47.460;19.034;2023-04-25T08:44:10;2.22;;;1.58;;
41799;SDS011;27468;47.460;19.034;2023-04-25T08:46:37;1.92;;;1.30;;
41799;SDS011;27468;47.460;19.034;2023-04-25T08:49:04;2.10;;;1.50;;
41799;SDS011;27468;47.460;19.034;2023-04-25T08:51:33;2.15;;;1.67;;
41799;SDS011;27468;47.460;19.034;2023-04-25T08:54:09;1.80;;;1.35;;
41799;SDS011;27468;47.460;19.034;2023-04-25T08:56:37;2.05;;;1.20;;
41799;SDS011;27468;47.460;19.034;2023-04-25T08:59:05;2.58;;;1.40;;
41799;SDS011;27468;47.460;19.034;2023-04-25T09:01:33;1.67;;;1.40;;
41799;SDS011;27468;47.460;19.034;2023-04-25T09:04:00;1.75;;;1.33;;
41799;SDS011;27468;47.460;19.034;2023-04-25T09:06:25;2.40;;;1.73;;
41799;SDS011;27468;47.460;19.034;2023-04-25T09:08:52;1.92;;;1.45;;
41799;SDS011;27468;47.460;19.034;2023-04-25T09:11:18;2.35;;;1.48;;
41799;SDS011;27468;47.460;19.034;2023-04-25T09:13:44;1.27;;;1.08;;
41799;SDS011;27468;47.460;19.034;2023-04-25T09:16:10;1.88;;;1.40;;
41799;SDS011;27468;47.460;19.034;2023-04-25T09:18:36;4.32;;;1.60;;
41799;SDS011;27468;47.460;19.034;2023-04-25T09:21:05;1.60;;;1.17;;
41799;SDS011;27468;47.460;19.034;2023-04-25T09:23:43;2.35;;;1.35;;
41799;SDS011;27468;47.460;19.034;2023-04-25T09:26:10;1.92;;;1.52;;
41799;SDS011;27468;47.460;19.034;2023-04-25T09:28:40;1.40;;;1.30;;
41799;SDS011;27468;47.460;19.034;2023-04-25T09:31:09;1.55;;;1.20;;
41799;SDS011;27468;47.460;19.034;2023-04-25T09:33:35;1.58;;;1.48;;
41799;SDS011;27468;47.460;19.034;2023-04-25T09:36:07;1.75;;;1.33;;
41799;SDS011;27468;47.460;19.034;2023-04-25T09:38:41;1.90;;;1.50;;
41799;SDS011;27468;47.460;19.034;2023-04-25T09:41:09;2.72;;;1.20;;
41799;SDS011;27468;47.460;19.034;2023-04-25T09:43:35;1.60;;;1.35;;
41799;SDS011;27468;47.460;19.034;2023-04-25T09:46:01;4.03;;;1.45;;
41799;SDS011;27468;47.460;19.034;2023-04-25T09:48:27;1.58;;;1.10;;
41799;SDS011;27468;47.460;19.034;2023-04-25T09:53:44;1.52;;;1.27;;
41799;SDS011;27468;47.460;19.034;2023-04-25T09:56:12;1.50;;;1.20;;
41799;SDS011;27468;47.460;19.034;2023-04-25T09:58:38;1.63;;;1.08;;
41799;SDS011;27468;47.460;19.034;2023-04-25T10:01:06;1.02;;;0.93;;
41799;SDS011;27468;47.460;19.034;2023-04-25T10:03:33;1.52;;;1.00;;
41799;SDS011;27468;47.460;19.034;2023-04-25T10:06:07;1.52;;;0.95;;
41799;SDS011;27468;47.460;19.034;2023-04-25T10:08:35;1.75;;;1.10;;
41799;SDS011;27468;47.460;19.034;2023-04-25T10:11:03;1.10;;;0.90;;
41799;SDS011;27468;47.460;19.034;2023-04-25T10:13:30;0.70;;;0.70;;
41799;SDS011;27468;47.460;19.034;2023-04-25T10:15:59;1.98;;;1.15;;
41799;SDS011;27468;47.460;19.034;2023-04-25T10:18:27;1.10;;;0.90;;
41799;SDS011;27468;47.460;19.034;2023-04-25T10:20:54;0.63;;;0.60;;
41799;SDS011;27468;47.460;19.034;2023-04-25T10:23:21;1.00;;;0.90;;
41799;SDS011;27468;47.460;19.034;2023-04-25T10:25:46;1.50;;;0.90;;
41799;SDS011;27468;47.460;19.034;2023-04-25T10:28:13;0.98;;;0.80;;
41799;SDS011;27468;47.460;19.034;2023-04-25T10:30:44;1.33;;;0.75;;
41799;SDS011;27468;47.460;19.034;2023-04-25T10:33:29;1.35;;;0.80;;
41799;SDS011;27468;47.460;19.034;2023-04-25T10:35:59;1.30;;;0.90;;
41799;SDS011;27468;47.460;19.034;2023-04-25T10:38:34;0.75;;;0.60;;
41799;SDS011;27468;47.460;19.034;2023-04-25T10:41:04;0.75;;;0.60;;
41799;SDS011;27468;47.460;19.034;2023-04-25T10:45:59;0.50;;;0.50;;
41799;SDS011;27468;47.460;19.034;2023-04-25T10:48:34;0.90;;;0.40;;
41799;SDS011;27468;47.460;19.034;2023-04-25T10:51:06;0.40;;;0.30;;
41799;SDS011;27468;47.460;19.034;2023-04-25T10:53:36;0.82;;;0.50;;
41799;SDS011;27468;47.460;19.034;2023-04-25T10:56:11;0.60;;;0.50;;
41799;SDS011;27468;47.460;19.034;2023-04-25T10:58:42;0.50;;;0.40;;
41799;SDS011;27468;47.460;19.034;2023-04-25T11:01:11;0.30;;;0.30;;
41799;SDS011;27468;47.460;19.034;2023-04-25T11:03:40;0.50;;;0.50;;
41799;SDS011;27468;47.460;19.034;2023-04-25T11:06:08;1.58;;;0.75;;
41799;SDS011;27468;47.460;19.034;2023-04-25T11:08:50;0.40;;;0.40;;
41799;SDS011;27468;47.460;19.034;2023-04-25T11:11:19;0.40;;;0.40;;
41799;SDS011;27468;47.460;19.034;2023-04-25T11:13:47;0.40;;;0.40;;
41799;SDS011;27468;47.460;19.034;2023-04-25T11:16:14;0.38;;;0.38;;
41799;SDS011;27468;47.460;19.034;2023-04-25T11:18:43;0.13;;;0.13;;
41799;SDS011;27468;47.460;19.034;2023-04-25T11:21:09;0.25;;;0.25;;
41799;SDS011;27468;47.460;19.034;2023-04-25T11:23:35;0.47;;;0.30;;
41799;SDS011;27468;47.460;19.034;2023-04-25T11:26:02;0.55;;;0.25;;
41799;SDS011;27468;47.460;19.034;2023-04-25T11:28:28;0.30;;;0.30;;
41799;SDS011;27468;47.460;19.034;2023-04-25T11:30:53;0.47;;;0.30;;
41799;SDS011;27468;47.460;19.034;2023-04-25T11:33:22;0.32;;;0.32;;
41799;SDS011;27468;47.460;19.034;2023-04-25T11:35:49;0.20;;;0.20;;
41799;SDS011;27468;47.460;19.034;2023-04-25T11:38:15;0.30;;;0.30;;
41799;SDS011;27468;47.460;19.034;2023-04-25T11:40:41;0.22;;;0.22;;
41799;SDS011;27468;47.460;19.034;2023-04-25T11:43:06;0.55;;;0.40;;
41799;SDS011;27468;47.460;19.034;2023-04-25T11:45:32;0.30;;;0.30;;
41799;SDS011;27468;47.460;19.034;2023-04-25T11:47:57;1.45;;;0.30;;
41799;SDS011;27468;47.460;19.034;2023-04-25T11:50:23;0.30;;;0.20;;
41799;SDS011;27468;47.460;19.034;2023-04-25T11:52:48;0.25;;;0.20;;
41799;SDS011;27468;47.460;19.034;2023-04-25T11:55:18;0.40;;;0.40;;
41799;SDS011;27468;47.460;19.034;2023-04-25T11:57:45;0.60;;;0.40;;
41799;SDS011;27468;47.460;19.034;2023-04-25T12:00:20;0.52;;;0.40;;
41799;SDS011;27468;47.460;19.034;2023-04-25T12:02:47;0.40;;;0.30;;
41799;SDS011;27468;47.460;19.034;2023-04-25T12:05:16;0.38;;;0.30;;
41799;SDS011;27468;47.460;19.034;2023-04-25T12:07:41;0.40;;;0.40;;
41799;SDS011;27468;47.460;19.034;2023-04-25T12:10:11;1.30;;;0.50;;
41799;SDS011;27468;47.460;19.034;2023-04-25T12:12:41;0.60;;;0.40;;
41799;SDS011;27468;47.460;19.034;2023-04-25T12:15:17;0.40;;;0.38;;
41799;SDS011;27468;47.460;19.034;2023-04-25T12:17:48;0.68;;;0.50;;
41799;SDS011;27468;47.460;19.034;2023-04-25T12:20:16;0.30;;;0.30;;
41799;SDS011;27468;47.460;19.034;2023-04-25T12:22:47;0.20;;;0.20;;
41799;SDS011;27468;47.460;19.034;2023-04-25T12:25:17;1.25;;;0.45;;
41799;SDS011;27468;47.460;19.034;2023-04-25T12:28:19;1.10;;;0.30;;
41799;SDS011;27468;47.460;19.034;2023-04-25T12:31:19;0.28;;;0.28;;
41799;SDS011;27468;47.460;19.034;2023-04-25T12:33:40;0.40;;;0.40;;
41799;SDS011;27468;47.460;19.034;2023-04-25T12:36:06;0.30;;;0.30;;
41799;SDS011;27468;47.460;19.034;2023-04-25T12:38:39;0.57;;;0.57;;
41799;SDS011;27468;47.460;19.034;2023-04-25T12:41:06;0.82;;;0.50;;
41799;SDS011;27468;47.460;19.034;2023-04-25T12:43:32;0.50;;;0.50;;
41799;SDS011;27468;47.460;19.034;2023-04-25T12:45:58;0.57;;;0.50;;
41799;SDS011;27468;47.460;19.034;2023-04-25T12:48:23;0.73;;;0.50;;
41799;SDS011;27468;47.460;19.034;2023-04-25T12:50:49;0.38;;;0.38;;
41799;SDS011;27468;47.460;19.034;2023-04-25T12:53:17;0.60;;;0.50;;
41799;SDS011;27468;47.460;19.034;2023-04-25T12:55:44;0.73;;;0.30;;
41799;SDS011;27468;47.460;19.034;2023-04-25T12:58:13;0.80;;;0.60;;
41799;SDS011;27468;47.460;19.034;2023-04-25T13:00:41;0.40;;;0.40;;
41799;SDS011;27468;47.460;19.034;2023-04-25T13:03:08;0.85;;;0.35;;
41799;SDS011;27468;47.460;19.034;2023-04-25T13:05:34;0.50;;;0.50;;
41799;SDS011;27468;47.460;19.034;2023-04-25T13:07:59;0.43;;;0.43;;
41799;SDS011;27468;47.460;19.034;2023-04-25T13:10:25;0.70;;;0.70;;
41799;SDS011;27468;47.460;19.034;2023-04-25T13:12:50;0.70;;;0.60;;
41799;SDS011;27468;47.460;19.034;2023-04-25T13:15:16;0.65;;;0.60;;
41799;SDS011;27468;47.460;19.034;2023-04-25T13:17:43;1.00;;;0.60;;
41799;SDS011;27468;47.460;19.034;2023-04-25T13:20:09;1.30;;;0.60;;
41799;SDS011;27468;47.460;19.034;2023-04-25T13:22:39;0.75;;;0.60;;
41799;SDS011;27468;47.460;19.034;2023-04-25T13:25:06;0.70;;;0.50;;
41799;SDS011;27468;47.460;19.034;2023-04-25T13:27:32;0.98;;;0.80;;
41799;SDS011;27468;47.460;19.034;2023-04-25T13:30:05;0.82;;;0.52;;
41799;SDS011;27468;47.460;19.034;2023-04-25T13:32:34;0.50;;;0.50;;
41799;SDS011;27468;47.460;19.034;2023-04-25T13:35:04;0.90;;;0.80;;
41799;SDS011;27468;47.460;19.034;2023-04-25T13:37:30;1.48;;;1.00;;
41799;SDS011;27468;47.460;19.034;2023-04-25T13:39:58;0.82;;;0.70;;
41799;SDS011;27468;47.460;19.034;2023-04-25T13:42:25;0.60;;;0.60;;
41799;SDS011;27468;47.460;19.034;2023-04-25T13:44:51;1.17;;;0.63;;
41799;SDS011;27468;47.460;19.034;2023-04-25T13:47:16;1.35;;;0.70;;
41799;SDS011;27468;47.460;19.034;2023-04-25T13:49:42;0.95;;;0.82;;
41799;SDS011;27468;47.460;19.034;2023-04-25T13:52:07;1.27;;;0.70;;
41799;SDS011;27468;47.460;19.034;2023-04-25T13:54:33;0.70;;;0.68;;
41799;SDS011;27468;47.460;19.034;2023-04-25T13:56:58;0.95;;;0.65;;
41799;SDS011;27468;47.460;19.034;2023-04-25T13:59:24;0.60;;;0.60;;
41799;SDS011;27468;47.460;19.034;2023-04-25T14:01:50;0.77;;;0.60;;
41799;SDS011;27468;47.460;19.034;2023-04-25T14:04:16;0.82;;;0.68;;
41799;SDS011;27468;47.460;19.034;2023-04-25T14:06:42;0.75;;;0.70;;
41799;SDS011;27468;47.460;19.034;2023-04-25T14:09:07;2.20;;;0.50;;
41799;SDS011;27468;47.460;19.034;2023-04-25T14:11:35;0.75;;;0.60;;
41799;SDS011;27468;47.460;19.034;2023-04-25T14:14:01;0.60;;;0.60;;
41799;SDS011;27468;47.460;19.034;2023-04-25T14:16:27;0.82;;;0.63;;
41799;SDS011;27468;47.460;19.034;2023-04-25T14:18:53;1.42;;;0.60;;
41799;SDS011;27468;47.460;19.034;2023-04-25T14:21:19;0.75;;;0.50;;
41799;SDS011;27468;47.460;19.034;2023-04-25T14:23:46;0.77;;;0.60;;
41799;SDS011;27468;47.460;19.034;2023-04-25T14:26:12;0.77;;;0.70;;
41799;SDS011;27468;47.460;19.034;2023-04-25T14:28:37;2.38;;;0.70;;
41799;SDS011;27468;47.460;19.034;2023-04-25T14:31:03;0.82;;;0.52;;
41799;SDS011;27468;47.460;19.034;2023-04-25T14:33:29;0.45;;;0.40;;
41799;SDS011;27468;47.460;19.034;2023-04-25T14:35:55;0.63;;;0.60;;